Time;durP1;ratioP1;P1;durP2;ratioP2;P2;SDS_P1;SDS_P2;PMS_P1;PMS_P2;Temp;Humidity;BMP_temperature;BMP_pressure;BME280_temperature;BME280_humidity;BME280_pressure;Samples;Min_cycle;Max_cycle;Signal;HPM_P1;HPM_P2
2023/11/27 00:01:22;;;;;;;9.70;9.50;;;5.20;99.90;;;;;;5085656;28;20986;-72
2023/11/27 00:03:49;;;;;;;9.87;9.67;;;5.20;99.90;;;;;;5078772;28;20834;-69
2023/11/27 00:06:16;;;;;;;9.77;9.57;;;5.20;99.90;;;;;;5071545;28;20557;-71
2023/11/27 00:08:43;;;;;;;10.17;9.97;;;5.10;99.90;;;;;;5083471;28;20458;-72
2023/11/27 00:11:10;;;;;;;10.33;10.13;;;5.00;99.90;;;;;;5090073;28;20935;-71
2023/11/27 00:13:38;;;;;;;10.60;10.40;;;5.10;99.90;;;;;;5079969;28;20481;-70
2023/11/27 00:16:07;;;;;;;10.30;10.10;;;5.10;99.90;;;;;;5077907;28;20466;-73
2023/11/27 00:18:34;;;;;;;10.33;10.13;;;5.20;99.90;;;;;;5078151;28;20830;-70
2023/11/27 00:21:00;;;;;;;10.43;10.23;;;5.20;99.90;;;;;;5081954;28;20550;-70
2023/11/27 00:23:27;;;;;;;10.53;10.33;;;5.10;99.90;;;;;;5083530;28;20854;-72
2023/11/27 00:25:55;;;;;;;10.20;10.00;;;5.10;99.90;;;;;;5087852;28;20453;-70
2023/11/27 00:28:22;;;;;;;9.67;9.47;;;5.10;99.90;;;;;;5078156;28;20914;-69
2023/11/27 00:30:51;;;;;;;9.70;9.50;;;5.10;99.90;;;;;;5090381;28;20454;-72
2023/11/27 00:33:19;;;;;;;9.67;9.47;;;5.10;99.90;;;;;;5076923;28;20502;-72
2023/11/27 00:35:45;;;;;;;9.53;9.33;;;5.10;99.90;;;;;;5077215;28;20458;-70
2023/11/27 00:38:13;;;;;;;9.53;9.33;;;5.00;99.90;;;;;;5097998;28;20450;-72
2023/11/27 00:40:40;;;;;;;9.30;9.10;;;5.00;99.90;;;;;;5080069;28;20498;-72
2023/11/27 00:43:07;;;;;;;9.80;9.60;;;5.00;99.90;;;;;;5091920;28;20465;-72
2023/11/27 00:45:34;;;;;;;9.83;9.63;;;5.00;99.90;;;;;;5091424;28;20818;-70
2023/11/27 00:48:03;;;;;;;9.87;9.67;;;5.10;99.90;;;;;;5078437;28;20548;-72
2023/11/27 00:50:30;;;;;;;9.90;9.70;;;4.90;99.90;;;;;;5082204;28;20581;-71
2023/11/27 00:52:56;;;;;;;10.10;9.90;;;5.00;99.90;;;;;;5083020;28;20550;-69
2023/11/27 00:55:24;;;;;;;9.97;9.77;;;5.00;99.90;;;;;;5086502;28;20470;-71
2023/11/27 00:57:51;;;;;;;10.40;10.20;;;4.90;99.90;;;;;;5083130;28;20464;-71
2023/11/27 01:00:19;;;;;;;10.70;10.50;;;4.90;99.90;;;;;;5074800;28;20503;-70
2023/11/27 01:02:46;;;;;;;10.47;10.27;;;4.90;99.90;;;;;;5079538;28;20827;-70
2023/11/27 01:05:15;;;;;;;11.10;10.80;;;4.90;99.90;;;;;;5078380;28;20484;-70
2023/11/27 01:07:42;;;;;;;11.13;10.83;;;4.80;99.90;;;;;;5090786;28;20457;-70
2023/11/27 01:10:10;;;;;;;11.07;10.77;;;4.80;99.90;;;;;;5076708;28;20554;-71
2023/11/27 01:12:42;;;;;;;11.80;11.50;;;4.80;99.90;;;;;;5090141;28;20460;-69
2023/11/27 01:15:11;;;;;;;11.70;11.40;;;4.80;99.90;;;;;;5081122;28;20467;-70
2023/11/27 01:17:38;;;;;;;11.13;10.83;;;4.80;99.90;;;;;;5087507;28;20464;-71
2023/11/27 01:20:08;;;;;;;11.10;10.80;;;4.80;99.90;;;;;;5078748;28;20636;-71
2023/11/27 01:22:37;;;;;;;10.90;10.60;;;4.70;99.90;;;;;;5082569;28;20494;-72
2023/11/27 01:25:05;;;;;;;10.93;10.63;;;4.70;99.90;;;;;;5089148;28;20582;-71
2023/11/27 01:27:33;;;;;;;10.40;10.20;;;4.70;99.90;;;;;;5085539;28;20459;-71
2023/11/27 01:30:01;;;;;;;10.53;10.33;;;4.70;99.90;;;;;;5081113;28;20501;-71
2023/11/27 01:32:28;;;;;;;10.50;10.30;;;4.70;99.90;;;;;;5074103;28;20509;-71
2023/11/27 01:34:55;;;;;;;10.40;10.20;;;4.60;99.90;;;;;;5086333;28;20826;-70
2023/11/27 01:37:22;;;;;;;10.20;10.00;;;4.70;99.90;;;;;;5090841;28;20462;-72
2023/11/27 01:39:51;;;;;;;10.20;10.00;;;4.70;99.90;;;;;;5076728;28;20480;-72
2023/11/27 01:42:18;;;;;;;9.67;9.47;;;4.70;99.90;;;;;;5080517;28;20464;-71
2023/11/27 01:44:45;;;;;;;9.87;9.67;;;4.60;99.90;;;;;;5083042;28;20464;-72
2023/11/27 01:47:13;;;;;;;9.60;9.40;;;4.60;99.90;;;;;;5097322;28;20995;-71
2023/11/27 01:49:42;;;;;;;9.70;9.50;;;4.70;99.90;;;;;;5082465;28;20538;-70
2023/11/27 01:52:09;;;;;;;9.33;9.13;;;4.70;99.90;;;;;;5084132;28;20549;-72
2023/11/27 01:54:40;;;;;;;8.80;8.70;;;4.60;99.90;;;;;;5088303;28;20463;-73
2023/11/27 01:57:11;;;;;;;9.70;9.50;;;4.70;99.90;;;;;;5085032;28;20491;-72
2023/11/27 01:59:38;;;;;;;9.50;9.30;;;4.70;99.90;;;;;;5087591;28;20524;-71
2023/11/27 02:02:07;;;;;;;9.30;9.10;;;4.70;99.90;;;;;;5074945;28;20482;-72
2023/11/27 02:04:33;;;;;;;9.10;8.90;;;4.70;99.90;;;;;;5084170;28;20474;-70
2023/11/27 02:07:01;;;;;;;9.50;9.30;;;4.60;99.90;;;;;;5078499;28;20458;-72
2023/11/27 02:09:28;;;;;;;9.60;9.40;;;4.70;99.90;;;;;;5089898;28;20462;-70
2023/11/27 02:11:55;;;;;;;9.07;8.87;;;4.70;99.90;;;;;;5076845;28;20811;-71
2023/11/27 02:14:23;;;;;;;9.80;9.60;;;4.70;99.90;;;;;;5086580;28;20454;-71
2023/11/27 02:16:51;;;;;;;9.40;9.20;;;4.70;99.90;;;;;;5077589;28;20470;-71
2023/11/27 02:19:18;;;;;;;9.40;9.20;;;4.70;99.90;;;;;;5082208;28;20970;-72
2023/11/27 02:21:46;;;;;;;9.30;9.10;;;4.70;99.90;;;;;;5083370;28;20493;-70
2023/11/27 02:24:15;;;;;;;9.47;9.27;;;4.70;99.90;;;;;;5087041;28;20478;-72
2023/11/27 02:26:42;;;;;;;9.33;9.13;;;4.70;99.90;;;;;;5089920;28;20472;-70
2023/11/27 02:29:09;;;;;;;9.33;9.13;;;4.70;99.90;;;;;;5079379;28;20455;-70
2023/11/27 02:31:37;;;;;;;9.70;9.50;;;4.70;99.90;;;;;;5089538;28;20822;-70
2023/11/27 02:34:04;;;;;;;9.67;9.47;;;4.70;99.90;;;;;;5077699;28;21231;-72
2023/11/27 02:36:38;;;;;;;9.73;9.53;;;4.80;99.90;;;;;;5078793;28;20459;-70
2023/11/27 02:39:07;;;;;;;9.73;9.53;;;4.80;99.90;;;;;;5089357;28;20955;-72
2023/11/27 02:41:37;;;;;;;10.27;10.07;;;4.80;99.90;;;;;;5083586;28;20466;-72
2023/11/27 02:44:05;;;;;;;10.10;9.90;;;4.80;99.90;;;;;;5079499;28;20451;-71
2023/11/27 02:46:32;;;;;;;10.23;10.03;;;4.80;99.90;;;;;;5096548;28;20455;-71
2023/11/27 02:48:59;;;;;;;10.07;9.87;;;4.80;99.90;;;;;;5095991;28;20452;-70
2023/11/27 02:51:27;;;;;;;10.00;9.80;;;4.80;99.90;;;;;;5080214;28;20463;-72
2023/11/27 02:53:54;;;;;;;10.60;10.40;;;4.80;99.90;;;;;;5081362;28;20460;-71
2023/11/27 02:56:20;;;;;;;10.50;10.30;;;4.70;99.90;;;;;;5089298;28;20794;-69
2023/11/27 02:58:49;;;;;;;10.20;10.00;;;4.70;99.90;;;;;;5089285;28;20513;-70
2023/11/27 03:01:16;;;;;;;9.93;9.73;;;4.70;99.90;;;;;;5080143;28;20499;-71
2023/11/27 03:03:43;;;;;;;9.40;9.20;;;4.70;99.90;;;;;;5088976;28;20956;-70
2023/11/27 03:06:13;;;;;;;10.50;10.30;;;4.60;99.90;;;;;;5083475;28;20468;-72
2023/11/27 03:08:40;;;;;;;10.47;10.27;;;4.60;99.90;;;;;;5080479;28;20490;-69
2023/11/27 03:11:07;;;;;;;10.83;10.53;;;4.70;99.90;;;;;;5077971;28;20961;-71
2023/11/27 03:13:34;;;;;;;10.93;10.63;;;4.60;99.90;;;;;;5085781;28;20450;-70
2023/11/27 03:16:03;;;;;;;10.40;10.20;;;4.60;99.90;;;;;;5095203;28;20449;-70
2023/11/27 03:18:30;;;;;;;11.30;11.00;;;4.60;99.90;;;;;;5085622;28;20482;-71
2023/11/27 03:20:57;;;;;;;11.80;11.50;;;4.60;99.90;;;;;;5076761;28;20487;-71
2023/11/27 03:23:25;;;;;;;12.30;11.90;;;4.50;99.90;;;;;;5082593;28;20492;-71
2023/11/27 03:25:52;;;;;;;12.40;12.00;;;4.50;99.90;;;;;;5088856;28;20542;-70
2023/11/27 03:28:19;;;;;;;12.23;11.83;;;4.50;99.90;;;;;;5077598;28;20471;-71
2023/11/27 03:30:46;;;;;;;12.90;12.50;;;4.40;99.90;;;;;;5085285;28;20463;-69
2023/11/27 03:33:15;;;;;;;13.20;12.80;;;4.30;99.90;;;;;;5088565;28;20459;-71
2023/11/27 03:35:41;;;;;;;13.70;13.20;;;4.40;99.90;;;;;;5072318;28;20476;-69
2023/11/27 03:38:08;;;;;;;13.97;13.47;;;4.40;99.90;;;;;;5083238;28;20968;-71
2023/11/27 03:40:35;;;;;;;14.20;13.70;;;4.30;99.90;;;;;;5074582;28;20486;-70
2023/11/27 03:43:02;;;;;;;14.80;14.20;;;4.30;99.90;;;;;;5086359;28;20462;-70
2023/11/27 03:45:28;;;;;;;17.40;16.60;;;4.30;99.90;;;;;;5090868;28;20452;-70
2023/11/27 03:47:55;;;;;;;18.20;17.20;;;4.30;99.90;;;;;;5097391;28;20471;-70
2023/11/27 03:50:24;;;;;;;18.30;17.30;;;4.30;99.90;;;;;;5080712;28;20546;-70
2023/11/27 03:52:52;;;;;;;17.70;16.80;;;4.30;99.90;;;;;;5077447;28;20465;-70
2023/11/27 03:55:19;;;;;;;18.13;17.13;;;4.20;99.90;;;;;;5087500;28;20956;-70
2023/11/27 03:57:46;;;;;;;17.40;16.50;;;4.30;99.90;;;;;;5083176;28;20470;-71
2023/11/27 04:00:14;;;;;;;16.63;15.83;;;4.20;99.90;;;;;;5079559;28;20488;-71
2023/11/27 04:02:41;;;;;;;17.20;16.30;;;4.20;99.90;;;;;;5088527;28;20877;-71
2023/11/27 04:05:09;;;;;;;16.37;15.57;;;4.20;99.90;;;;;;5084601;28;20961;-70
2023/11/27 04:07:39;;;;;;;17.00;16.20;;;4.10;99.90;;;;;;5085182;28;20476;-70
2023/11/27 04:10:07;;;;;;;16.90;16.10;;;4.10;99.90;;;;;;5077621;28;20550;-70
2023/11/27 04:12:34;;;;;;;16.40;15.60;;;4.20;99.90;;;;;;5086122;28;20465;-71
2023/11/27 04:15:01;;;;;;;16.23;15.43;;;4.10;99.90;;;;;;5092348;28;20510;-71
2023/11/27 04:17:28;;;;;;;16.50;15.70;;;4.10;99.90;;;;;;5097429;28;20830;-70
2023/11/27 04:19:56;;;;;;;16.20;15.50;;;4.10;99.90;;;;;;5082150;28;20486;-70
2023/11/27 04:22:24;;;;;;;15.63;14.93;;;4.10;99.90;;;;;;5080563;28;20460;-70
2023/11/27 04:24:53;;;;;;;15.20;14.60;;;4.10;99.90;;;;;;5091985;28;20469;-71
2023/11/27 04:27:19;;;;;;;15.30;14.70;;;4.10;99.90;;;;;;5090404;28;20460;-71
2023/11/27 04:29:46;;;;;;;15.20;14.60;;;4.10;99.90;;;;;;5086259;28;20920;-70
2023/11/27 04:32:13;;;;;;;14.83;14.23;;;4.10;99.90;;;;;;5093714;28;20466;-71
2023/11/27 04:34:40;;;;;;;15.90;15.20;;;4.10;99.90;;;;;;5092047;28;20459;-71
2023/11/27 04:37:10;;;;;;;14.93;14.33;;;4.10;99.90;;;;;;5084290;28;20471;-72
2023/11/27 04:39:37;;;;;;;14.97;14.37;;;4.10;99.90;;;;;;5079046;28;20965;-71
2023/11/27 04:42:06;;;;;;;14.90;14.30;;;4.00;99.90;;;;;;5090969;28;20469;-71
2023/11/27 04:44:33;;;;;;;14.43;13.93;;;4.00;99.90;;;;;;5091318;28;20457;-71
2023/11/27 04:47:00;;;;;;;14.80;14.20;;;4.00;99.90;;;;;;5086155;28;20834;-71
2023/11/27 04:49:27;;;;;;;15.00;14.40;;;4.10;99.90;;;;;;5090114;28;20500;-71
2023/11/27 04:51:55;;;;;;;15.27;14.67;;;4.10;99.90;;;;;;5083580;28;20459;-71
2023/11/27 04:54:22;;;;;;;14.43;13.93;;;4.00;99.90;;;;;;5089521;28;20550;-71
2023/11/27 04:56:50;;;;;;;15.40;14.80;;;4.00;99.90;;;;;;5090197;28;20462;-71
2023/11/27 04:59:18;;;;;;;14.77;14.27;;;4.00;99.90;;;;;;5080745;28;20511;-71
2023/11/27 05:01:45;;;;;;;14.77;14.17;;;4.00;99.90;;;;;;5093080;28;20831;-71
2023/11/27 05:04:16;;;;;;;15.10;14.50;;;4.00;99.90;;;;;;5090655;28;20464;-72
2023/11/27 05:06:42;;;;;;;14.37;13.87;;;4.10;99.90;;;;;;5079688;28;20500;-72
2023/11/27 05:09:10;;;;;;;14.40;13.90;;;4.00;99.90;;;;;;5078058;28;20468;-71
2023/11/27 05:11:37;;;;;;;14.50;14.00;;;4.00;99.90;;;;;;5079150;28;20900;-72
2023/11/27 05:14:04;;;;;;;14.00;13.50;;;4.00;99.90;;;;;;5086662;28;20466;-72
2023/11/27 05:16:32;;;;;;;13.67;13.17;;;4.00;99.90;;;;;;5081397;28;20511;-72
2023/11/27 05:18:59;;;;;;;14.20;13.70;;;4.10;99.90;;;;;;5085653;28;20492;-71
2023/11/27 05:21:26;;;;;;;14.20;13.70;;;4.10;99.90;;;;;;5079672;28;20487;-72
2023/11/27 05:23:53;;;;;;;14.20;13.70;;;4.10;99.90;;;;;;5075529;28;20868;-72
2023/11/27 05:26:20;;;;;;;14.27;13.77;;;4.10;99.90;;;;;;5082153;28;20454;-72
2023/11/27 05:28:47;;;;;;;14.37;13.87;;;4.10;99.90;;;;;;5078967;28;20463;-72
2023/11/27 05:31:14;;;;;;;15.10;14.50;;;4.20;99.90;;;;;;5090590;28;20484;-71
2023/11/27 05:33:43;;;;;;;14.03;13.53;;;4.20;99.90;;;;;;5086863;28;20502;-72
2023/11/27 05:36:10;;;;;;;14.07;13.57;;;4.20;99.90;;;;;;5077064;28;20500;-73
2023/11/27 05:38:37;;;;;;;14.00;13.50;;;4.30;99.90;;;;;;5072862;28;20492;-73
2023/11/27 05:41:07;;;;;;;13.70;13.20;;;4.20;99.90;;;;;;5088564;28;20594;-73
2023/11/27 05:43:34;;;;;;;13.50;13.10;;;4.30;99.90;;;;;;5084526;28;20462;-72
2023/11/27 05:46:02;;;;;;;13.43;13.03;;;4.20;99.90;;;;;;5086446;28;20482;-72
2023/11/27 05:48:29;;;;;;;13.40;13.00;;;4.30;99.90;;;;;;5078452;28;20475;-72
2023/11/27 05:50:58;;;;;;;13.40;13.00;;;4.20;99.90;;;;;;5080477;28;21002;-72
2023/11/27 05:53:26;;;;;;;13.00;12.60;;;4.20;99.90;;;;;;5082070;28;20839;-72
2023/11/27 05:55:53;;;;;;;13.60;13.20;;;4.20;99.90;;;;;;5077696;28;20693;-71
2023/11/27 05:58:20;;;;;;;13.43;13.03;;;4.20;99.90;;;;;;5085429;28;20832;-72
2023/11/27 06:00:47;;;;;;;13.60;13.20;;;4.20;99.90;;;;;;5086443;28;20478;-71
2023/11/27 06:03:14;;;;;;;13.60;13.20;;;4.20;99.90;;;;;;5083284;28;20571;-71
2023/11/27 06:05:41;;;;;;;13.07;12.67;;;4.20;99.90;;;;;;5087033;28;20843;-71
2023/11/27 06:08:11;;;;;;;12.80;12.40;;;4.10;99.90;;;;;;5086892;28;20516;-72
2023/11/27 06:10:37;;;;;;;12.70;12.30;;;4.10;99.90;;;;;;5078120;28;20966;-71
2023/11/27 06:13:04;;;;;;;12.80;12.40;;;4.10;99.90;;;;;;5073972;28;20982;-72
2023/11/27 06:15:31;;;;;;;12.40;12.07;;;4.20;99.90;;;;;;5080935;28;20457;-71
2023/11/27 06:17:58;;;;;;;12.93;12.53;;;4.10;99.90;;;;;;5092824;28;20508;-72
2023/11/27 06:20:25;;;;;;;13.20;12.80;;;4.10;99.90;;;;;;5087379;28;20477;-72
2023/11/27 06:22:55;;;;;;;13.10;12.70;;;4.10;99.90;;;;;;5083584;28;20784;-72
2023/11/27 06:25:23;;;;;;;13.00;12.60;;;4.00;99.90;;;;;;5085513;28;20579;-71
2023/11/27 06:27:50;;;;;;;12.80;12.40;;;4.00;99.90;;;;;;5074103;28;20518;-72
2023/11/27 06:30:17;;;;;;;12.23;11.93;;;4.00;99.90;;;;;;5078900;28;20962;-72
2023/11/27 06:32:44;;;;;;;12.90;12.50;;;4.00;99.90;;;;;;5072226;28;20554;-72
2023/11/27 06:35:11;;;;;;;12.90;12.50;;;4.00;99.90;;;;;;5082542;28;21017;-71
2023/11/27 06:37:39;;;;;;;12.97;12.57;;;4.00;99.90;;;;;;5086067;28;20885;-72
2023/11/27 06:40:07;;;;;;;13.20;12.80;;;4.00;99.90;;;;;;5076155;28;20465;-71
2023/11/27 06:42:35;;;;;;;13.50;13.10;;;4.10;99.90;;;;;;5075820;28;20599;-72
2023/11/27 06:45:02;;;;;;;13.27;12.87;;;4.10;99.90;;;;;;5078976;28;20458;-72
2023/11/27 06:47:29;;;;;;;13.30;12.90;;;4.10;99.90;;;;;;5076984;28;21039;-71
2023/11/27 06:49:56;;;;;;;13.30;12.90;;;4.00;99.90;;;;;;5086248;28;20873;-71
2023/11/27 06:52:23;;;;;;;13.40;13.00;;;4.00;99.90;;;;;;5089552;28;20467;-72
2023/11/27 06:54:50;;;;;;;12.90;12.50;;;4.00;99.90;;;;;;5083934;28;20775;-71
2023/11/27 06:57:17;;;;;;;13.00;12.60;;;4.00;99.90;;;;;;5083350;28;20446;-72
2023/11/27 06:59:46;;;;;;;12.90;12.50;;;4.00;99.90;;;;;;5083449;28;21127;-71
2023/11/27 07:02:13;;;;;;;12.57;12.17;;;4.10;99.90;;;;;;5076672;28;20895;-71
2023/11/27 07:04:40;;;;;;;12.20;11.90;;;4.00;99.90;;;;;;5086579;28;20459;-71
2023/11/27 07:07:08;;;;;;;13.43;13.03;;;4.00;99.90;;;;;;5087014;28;20869;-72
2023/11/27 07:09:36;;;;;;;13.23;12.83;;;4.00;99.90;;;;;;5086184;28;20454;-72
2023/11/27 07:12:03;;;;;;;12.70;12.30;;;4.10;99.90;;;;;;5077941;28;20471;-72
2023/11/27 07:14:31;;;;;;;12.60;12.20;;;4.10;99.90;;;;;;5086456;28;20466;-72
2023/11/27 07:16:59;;;;;;;12.23;11.93;;;4.10;99.90;;;;;;5074573;28;20541;-72
2023/11/27 07:19:26;;;;;;;12.90;12.50;;;4.00;99.90;;;;;;5081023;28;21006;-72
2023/11/27 07:21:53;;;;;;;12.47;12.17;;;4.00;99.90;;;;;;5073954;28;20500;-72
2023/11/27 07:24:20;;;;;;;13.37;12.97;;;4.00;99.90;;;;;;5079756;28;20479;-73
2023/11/27 07:26:47;;;;;;;13.47;13.07;;;4.10;99.90;;;;;;5084307;28;20544;-72
2023/11/27 07:29:14;;;;;;;13.10;12.70;;;4.10;99.90;;;;;;5075857;28;20473;-73
2023/11/27 07:31:41;;;;;;;13.20;12.80;;;4.00;99.90;;;;;;5088220;28;20470;-73
2023/11/27 07:34:11;;;;;;;12.67;12.27;;;4.10;99.90;;;;;;5071425;28;20923;-73
2023/11/27 07:36:38;;;;;;;13.10;12.70;;;4.10;99.90;;;;;;5085783;28;20847;-73
2023/11/27 07:39:07;;;;;;;13.07;12.67;;;4.00;99.90;;;;;;5087826;28;20466;-73
2023/11/27 07:41:34;;;;;;;13.50;13.10;;;4.00;99.90;;;;;;5082078;28;20517;-72
2023/11/27 07:44:00;;;;;;;14.10;13.63;;;4.10;99.90;;;;;;5083740;28;20495;-72
2023/11/27 07:46:28;;;;;;;14.00;13.60;;;4.10;99.90;;;;;;5081910;28;20458;-73
2023/11/27 07:48:55;;;;;;;14.30;13.83;;;4.00;99.90;;;;;;5082133;28;20542;-72
2023/11/27 07:51:24;;;;;;;14.80;14.30;;;4.00;99.90;;;;;;5087069;28;20811;-72
2023/11/27 07:53:52;;;;;;;14.50;14.00;;;4.00;99.90;;;;;;5070992;28;20472;-73
2023/11/27 07:56:27;;;;;;;14.60;14.10;;;4.00;99.90;;;;;;5075322;28;20452;-72
2023/11/27 07:58:54;;;;;;;14.00;13.60;;;4.00;99.90;;;;;;5087128;28;20457;-73
2023/11/27 08:01:21;;;;;;;14.10;13.70;;;4.00;99.90;;;;;;5091082;28;20835;-73
2023/11/27 08:03:48;;;;;;;13.80;13.40;;;4.00;99.90;;;;;;5083177;28;20473;-71
2023/11/27 08:06:15;;;;;;;13.87;13.47;;;4.00;99.90;;;;;;5088261;28;20470;-73
2023/11/27 08:08:43;;;;;;;13.80;13.40;;;4.00;99.90;;;;;;5080429;28;20894;-72
2023/11/27 08:11:10;;;;;;;14.20;13.80;;;4.00;99.90;;;;;;5079555;28;20472;-73
2023/11/27 08:13:38;;;;;;;14.30;13.90;;;4.00;99.90;;;;;;5086746;28;20960;-73
2023/11/27 08:16:07;;;;;;;13.90;13.50;;;4.00;99.90;;;;;;5087990;28;20470;-73
2023/11/27 08:18:35;;;;;;;13.70;13.30;;;4.00;99.90;;;;;;5076474;28;20470;-73
2023/11/27 08:21:05;;;;;;;13.47;13.07;;;4.10;99.90;;;;;;5066703;28;20456;-72
2023/11/27 08:23:34;;;;;;;13.50;13.10;;;4.00;99.90;;;;;;5069712;28;20988;-73
2023/11/27 08:26:03;;;;;;;13.90;13.50;;;4.10;99.90;;;;;;5073781;28;20499;-72
2023/11/27 08:28:30;;;;;;;13.40;13.00;;;4.10;99.90;;;;;;5073134;28;20471;-73
2023/11/27 08:31:12;;;;;;;12.87;12.50;;;4.10;99.90;;;;;;5074069;28;20468;-74
2023/11/27 08:33:41;;;;;;;13.43;13.03;;;4.10;99.90;;;;;;5072757;28;20464;-73
2023/11/27 08:36:11;;;;;;;13.27;12.87;;;4.10;99.90;;;;;;5069270;28;20455;-71
2023/11/27 08:38:38;;;;;;;13.70;13.30;;;4.10;99.90;;;;;;5074901;28;20527;-71
2023/11/27 08:41:07;;;;;;;13.93;13.53;;;4.10;99.90;;;;;;5074705;28;20463;-73
2023/11/27 08:43:35;;;;;;;14.47;13.97;;;4.20;99.90;;;;;;5072851;28;20834;-73
2023/11/27 08:46:02;;;;;;;13.50;13.10;;;4.20;99.90;;;;;;5075309;28;20472;-74
2023/11/27 08:48:29;;;;;;;13.30;12.90;;;4.20;99.90;;;;;;5075370;28;20549;-73
2023/11/27 08:50:56;;;;;;;12.80;12.43;;;4.20;99.90;;;;;;5075943;28;20551;-72
2023/11/27 08:53:27;;;;;;;13.50;13.10;;;4.20;99.90;;;;;;5070287;28;20469;-73
2023/11/27 08:55:57;;;;;;;14.23;13.77;;;4.30;99.90;;;;;;5074041;28;20465;-72
2023/11/27 08:58:25;;;;;;;13.53;13.13;;;4.40;99.90;;;;;;5072490;28;20481;-72
2023/11/27 09:00:53;;;;;;;13.23;12.83;;;4.40;99.90;;;;;;5076886;28;20470;-73
2023/11/27 09:03:19;;;;;;;14.20;13.70;;;4.40;99.90;;;;;;5080936;28;20852;-72
2023/11/27 09:05:46;;;;;;;13.60;13.20;;;4.50;99.90;;;;;;5081011;28;20473;-72
2023/11/27 09:08:13;;;;;;;13.13;12.73;;;4.40;99.90;;;;;;5078284;28;20949;-72
2023/11/27 09:10:40;;;;;;;13.13;12.73;;;4.50;99.90;;;;;;5072707;28;20479;-72
2023/11/27 09:13:09;;;;;;;13.60;13.20;;;4.50;99.90;;;;;;5080259;28;20830;-72
2023/11/27 09:15:38;;;;;;;13.70;13.30;;;4.50;99.90;;;;;;5072374;28;20463;-73
2023/11/27 09:18:04;;;;;;;13.47;13.07;;;4.60;99.90;;;;;;5077540;28;20516;-72
2023/11/27 09:20:31;;;;;;;14.23;13.73;;;4.60;99.90;;;;;;5076268;28;20487;-72
2023/11/27 09:22:58;;;;;;;14.20;13.70;;;4.70;99.90;;;;;;5070020;28;20470;-72
2023/11/27 09:25:25;;;;;;;14.07;13.67;;;4.70;99.90;;;;;;5077288;28;20491;-73
2023/11/27 09:27:52;;;;;;;15.10;14.60;;;4.70;99.90;;;;;;5078536;28;20465;-72
2023/11/27 09:30:20;;;;;;;13.77;13.37;;;4.80;99.90;;;;;;5073691;28;20475;-72
2023/11/27 09:32:51;;;;;;;13.83;13.43;;;4.80;99.90;;;;;;5075952;28;20466;-72
2023/11/27 09:35:18;;;;;;;14.07;13.57;;;4.90;99.90;;;;;;5077238;28;20461;-74
2023/11/27 09:37:45;;;;;;;12.77;12.37;;;5.00;99.90;;;;;;5071946;28;20455;-73
2023/11/27 09:40:13;;;;;;;13.33;12.93;;;5.00;99.90;;;;;;5074434;28;20491;-73
2023/11/27 09:42:41;;;;;;;13.10;12.70;;;4.90;99.90;;;;;;5074900;28;20528;-73
2023/11/27 09:45:10;;;;;;;12.80;12.40;;;4.90;99.90;;;;;;5071838;28;20871;-73
2023/11/27 09:47:38;;;;;;;12.90;12.50;;;5.00;99.90;;;;;;5074485;28;20715;-73
2023/11/27 09:50:08;;;;;;;12.57;12.17;;;5.00;99.90;;;;;;5076651;28;20524;-72
2023/11/27 09:52:49;;;;;;;12.53;12.23;;;5.00;99.90;;;;;;5073198;28;21050;-72
2023/11/27 09:55:20;;;;;;;12.10;11.80;;;5.00;99.90;;;;;;5075549;28;20898;-74
2023/11/27 09:57:48;;;;;;;12.50;12.20;;;5.00;99.90;;;;;;5073778;28;20553;-72
2023/11/27 10:00:18;;;;;;;12.23;11.93;;;5.10;99.90;;;;;;5077596;28;20500;-73
2023/11/27 10:02:48;;;;;;;11.57;11.27;;;5.10;99.90;;;;;;5076168;28;20524;-73
2023/11/27 10:05:21;;;;;;;12.10;11.80;;;5.00;99.90;;;;;;5073221;28;20467;-73
2023/11/27 10:07:49;;;;;;;11.33;11.03;;;5.00;99.90;;;;;;5076102;28;20984;-74
2023/11/27 10:10:17;;;;;;;12.17;11.87;;;5.00;99.90;;;;;;5075340;28;20985;-72
2023/11/27 10:12:47;;;;;;;12.30;12.00;;;5.10;99.90;;;;;;5069823;28;20757;-73
2023/11/27 10:15:16;;;;;;;11.77;11.47;;;5.10;99.90;;;;;;5071052;28;20463;-73
2023/11/27 10:17:45;;;;;;;12.10;11.80;;;5.10;99.90;;;;;;5076967;28;20858;-73
2023/11/27 10:20:13;;;;;;;12.07;11.77;;;5.10;99.90;;;;;;5076524;28;20569;-73
2023/11/27 10:22:43;;;;;;;12.00;11.70;;;5.10;99.90;;;;;;5076066;28;20487;-72
2023/11/27 10:25:13;;;;;;;12.00;11.70;;;5.10;99.90;;;;;;5069605;28;20498;-72
2023/11/27 10:27:41;;;;;;;11.43;11.13;;;5.00;99.90;;;;;;5074183;28;20741;-74
2023/11/27 10:30:18;;;;;;;11.20;10.90;;;5.10;99.90;;;;;;5073449;28;20553;-73
2023/11/27 10:32:46;;;;;;;11.33;11.03;;;5.00;99.90;;;;;;5075680;28;20468;-73
2023/11/27 10:35:13;;;;;;;11.23;10.93;;;5.00;99.90;;;;;;5075383;28;20865;-73
2023/11/27 10:37:42;;;;;;;10.93;10.67;;;5.00;99.90;;;;;;5074038;28;21004;-73
2023/11/27 10:40:15;;;;;;;12.00;11.70;;;5.00;99.90;;;;;;5071450;28;20563;-72
2023/11/27 10:42:47;;;;;;;11.77;11.47;;;5.00;99.90;;;;;;5075106;28;20495;-73
2023/11/27 10:45:16;;;;;;;12.10;11.80;;;4.90;99.90;;;;;;5069826;28;20494;-73
2023/11/27 10:47:46;;;;;;;12.10;11.80;;;5.00;99.90;;;;;;5075492;28;20454;-73
2023/11/27 10:50:14;;;;;;;12.40;12.10;;;5.00;99.90;;;;;;5074425;28;20469;-74
2023/11/27 10:52:47;;;;;;;12.40;12.10;;;5.00;99.90;;;;;;5075198;28;20463;-73
2023/11/27 10:55:16;;;;;;;12.07;11.77;;;5.00;99.90;;;;;;5071929;28;20703;-73
2023/11/27 10:57:44;;;;;;;11.17;10.87;;;5.00;99.90;;;;;;5076893;28;21005;-73
2023/11/27 11:00:14;;;;;;;11.60;11.30;;;5.00;99.90;;;;;;5070582;28;20552;-72
2023/11/27 11:02:48;;;;;;;11.40;11.10;;;4.90;99.90;;;;;;5074315;28;20482;-73
2023/11/27 11:05:21;;;;;;;10.80;10.60;;;5.00;99.90;;;;;;5075875;28;20502;-72
2023/11/27 11:07:52;;;;;;;10.80;10.60;;;4.90;99.90;;;;;;5073478;28;20458;-72
2023/11/27 11:10:26;;;;;;;11.30;11.00;;;5.00;99.90;;;;;;5073966;28;20469;-73
2023/11/27 11:12:54;;;;;;;11.07;10.80;;;5.00;99.90;;;;;;5072611;28;20472;-73
2023/11/27 11:15:28;;;;;;;11.20;10.90;;;5.00;99.90;;;;;;5071766;28;20469;-73
2023/11/27 11:18:01;;;;;;;10.70;10.50;;;5.00;99.90;;;;;;5075123;28;20486;-73
2023/11/27 11:20:42;;;;;;;11.70;11.40;;;5.00;99.90;;;;;;5073081;28;20482;-73
2023/11/27 11:23:24;;;;;;;11.27;10.97;;;5.00;99.90;;;;;;5075878;28;21085;-72
2023/11/27 11:26:21;;;;;;;10.73;10.53;;;5.00;99.90;;;;;;5075808;28;20459;-72
2023/11/27 11:28:49;;;;;;;10.50;10.30;;;5.10;99.90;;;;;;5067954;28;20463;-73
2023/11/27 11:31:17;;;;;;;10.40;10.20;;;5.10;99.90;;;;;;5074160;28;20502;-73
2023/11/27 11:33:44;;;;;;;10.00;9.80;;;5.10;99.90;;;;;;5073474;28;21197;-73
2023/11/27 11:36:13;;;;;;;10.27;10.07;;;5.10;99.90;;;;;;5074443;28;20472;-73
2023/11/27 11:38:48;;;;;;;10.70;10.50;;;5.10;99.90;;;;;;5073369;28;20562;-73
2023/11/27 11:41:17;;;;;;;10.40;10.20;;;5.10;99.90;;;;;;5068698;28;20508;-72
2023/11/27 11:43:47;;;;;;;10.53;10.33;;;5.10;99.90;;;;;;5075267;28;21004;-73
2023/11/27 11:46:20;;;;;;;10.60;10.40;;;5.10;99.90;;;;;;5074568;28;20536;-73
2023/11/27 11:48:55;;;;;;;10.43;10.23;;;5.20;99.90;;;;;;5073162;28;20463;-72
2023/11/27 11:51:24;;;;;;;10.73;10.53;;;5.20;99.90;;;;;;5074143;28;20466;-73
2023/11/27 11:53:53;;;;;;;10.60;10.40;;;5.20;99.90;;;;;;5071252;28;20450;-73
2023/11/27 11:56:22;;;;;;;10.63;10.43;;;5.20;99.90;;;;;;5071064;28;20579;-72
2023/11/27 11:58:56;;;;;;;10.87;10.60;;;5.20;99.90;;;;;;5075001;28;20554;-73
2023/11/27 12:01:26;;;;;;;11.37;11.07;;;5.10;99.90;;;;;;5073660;28;20520;-72
2023/11/27 12:03:55;;;;;;;11.00;10.70;;;5.10;99.90;;;;;;5073849;28;20897;-73
2023/11/27 12:06:26;;;;;;;11.20;10.90;;;5.10;99.90;;;;;;5068666;28;20488;-72
2023/11/27 12:08:56;;;;;;;10.67;10.47;;;5.10;99.90;;;;;;5073630;28;20503;-73
2023/11/27 12:11:23;;;;;;;10.70;10.50;;;5.10;99.90;;;;;;5073354;28;20477;-73
2023/11/27 12:13:51;;;;;;;11.03;10.73;;;5.10;99.90;;;;;;5075359;28;20523;-71
2023/11/27 12:16:21;;;;;;;11.13;10.83;;;5.10;99.90;;;;;;5073108;28;20463;-73
2023/11/27 12:18:50;;;;;;;11.20;10.90;;;5.10;99.90;;;;;;5073534;28;20474;-73
2023/11/27 12:21:22;;;;;;;10.30;10.10;;;5.00;99.90;;;;;;5070446;28;20883;-73
2023/11/27 12:23:50;;;;;;;10.23;10.03;;;5.00;99.90;;;;;;5069080;28;20543;-72
2023/11/27 12:26:22;;;;;;;10.73;10.50;;;5.00;99.90;;;;;;5073437;28;20459;-72
2023/11/27 12:28:50;;;;;;;11.00;10.70;;;5.00;99.90;;;;;;5075595;28;20907;-72
2023/11/27 12:31:18;;;;;;;10.60;10.40;;;5.00;99.90;;;;;;5069176;28;20462;-73
2023/11/27 12:33:47;;;;;;;10.20;10.00;;;5.00;99.90;;;;;;5075425;28;20463;-73
2023/11/27 12:36:20;;;;;;;10.30;10.10;;;5.00;99.90;;;;;;5073395;28;20471;-73
2023/11/27 12:38:52;;;;;;;10.53;10.33;;;5.00;99.90;;;;;;5075956;28;20557;-73
2023/11/27 12:41:29;;;;;;;10.57;10.37;;;5.00;99.90;;;;;;5078641;28;21014;-73
2023/11/27 12:44:08;;;;;;;10.30;10.10;;;5.00;99.90;;;;;;5083392;28;20496;-73
2023/11/27 12:46:35;;;;;;;10.17;9.97;;;5.00;99.90;;;;;;5075087;28;20592;-72